Time;durP1;ratioP1;P1;durP2;ratioP2;P2;SDS_P1;SDS_P2;PMS_P1;PMS_P2;Temp;Humidity;BMP_temperature;BMP_pressure;BME280_temperature;BME280_humidity;BME280_pressure;Samples;Min_cycle;Max_cycle;Signal;HPM_P1;HPM_P2
2023/12/07 00:00:41;;;;;;;;;;;;;;;-0.93;79.92;101799.41;106833;1254;123868;-85
2023/12/07 00:03:28;;;;;;;;;;;;;;;-0.96;79.81;101798.60;106933;1254;66687;-84
2023/12/07 00:05:54;;;;;;;;;;;;;;;-0.97;80.11;101799.21;106848;1259;124223;-84
2023/12/07 00:08:21;;;;;;;;;;;;;;;-0.98;80.01;101798.92;106967;1259;61326;-82
2023/12/07 00:10:48;;;;;;;;;;;;;;;-1.02;79.98;101797.80;107028;1254;61292;-83
2023/12/07 00:13:14;;;;;;;;;;;;;;;-1.05;79.96;101798.90;106725;1270;125094;-83
2023/12/07 00:15:41;;;;;;;;;;;;;;;-1.09;79.96;101800.29;106951;1254;64827;-82
2023/12/07 00:18:08;;;;;;;;;;;;;;;-1.11;80.06;101800.95;106680;1254;124568;-84
2023/12/07 00:20:34;;;;;;;;;;;;;;;-1.11;80.05;101800.42;106864;1260;61362;-83
2023/12/07 00:23:01;;;;;;;;;;;;;;;-1.10;80.20;101803.92;106916;1260;61223;-83
2023/12/07 00:25:28;;;;;;;;;;;;;;;-1.10;80.33;101799.97;106742;1254;124765;-83
2023/12/07 00:27:55;;;;;;;;;;;;;;;-1.10;80.08;101799.09;106810;1260;63722;-83
2023/12/07 00:30:22;;;;;;;;;;;;;;;-1.10;80.16;101798.73;106610;1257;125334;-84
2023/12/07 00:32:49;;;;;;;;;;;;;;;-1.09;80.14;101797.01;106819;1259;61999;-84
2023/12/07 00:35:16;;;;;;;;;;;;;;;-1.07;80.18;101798.23;106908;1257;61263;-84
2023/12/07 00:37:42;;;;;;;;;;;;;;;-1.07;80.17;101800.93;106721;1254;124532;-83
2023/12/07 00:40:09;;;;;;;;;;;;;;;-1.05;80.25;101802.31;106952;1257;65960;-83
2023/12/07 00:42:36;;;;;;;;;;;;;;;-1.03;80.22;101807.35;106592;1254;125127;-83
2023/12/07 00:45:03;;;;;;;;;;;;;;;-1.02;80.29;101810.36;106804;1256;61182;-82
2023/12/07 00:47:30;;;;;;;;;;;;;;;-1.01;80.39;101804.55;106804;1254;124912;-82
2023/12/07 00:49:56;;;;;;;;;;;;;;;-1.00;80.25;101806.58;106941;1253;74596;-82
2023/12/07 00:52:23;;;;;;;;;;;;;;;-0.98;80.33;101805.86;106846;1255;64983;-81
2023/12/07 00:54:50;;;;;;;;;;;;;;;-0.96;80.28;101806.85;106710;1258;124537;-82
2023/12/07 00:57:16;;;;;;;;;;;;;;;-0.95;80.36;101804.77;106875;1259;61130;-82
2023/12/07 00:59:43;;;;;;;;;;;;;;;-0.93;80.21;101810.89;106743;1256;124782;-82
2023/12/07 01:02:10;;;;;;;;;;;;;;;-0.94;80.22;101809.66;106698;1255;73862;-82
2023/12/07 01:04:36;;;;;;;;;;;;;;;-0.92;80.08;101808.84;106608;1258;66231;-83
2023/12/07 01:07:03;;;;;;;;;;;;;;;-0.90;80.33;101813.42;106609;1258;124761;-82
2023/12/07 01:09:30;;;;;;;;;;;;;;;-0.88;80.24;101813.11;106592;1255;61164;-82
2023/12/07 01:11:57;;;;;;;;;;;;;;;-0.86;80.18;101815.16;106576;1259;125151;-82
2023/12/07 01:14:24;;;;;;;;;;;;;;;-0.86;80.21;101815.17;106812;1254;74848;-82
2023/12/07 01:16:51;;;;;;;;;;;;;;;-0.85;80.18;101819.45;106821;1259;66270;-83
2023/12/07 01:19:18;;;;;;;;;;;;;;;-0.84;80.14;101819.88;106731;1258;124515;-81
2023/12/07 01:21:45;;;;;;;;;;;;;;;-0.82;80.36;101823.48;106510;1254;61351;-82
2023/12/07 01:24:11;;;;;;;;;;;;;;;-0.84;80.07;101823.28;106537;1254;123908;-83
2023/12/07 01:26:38;;;;;;;;;;;;;;;-0.86;80.21;101822.96;106812;1259;73508;-82
2023/12/07 01:29:05;;;;;;;;;;;;;;;-0.88;80.15;101823.65;106789;1253;64962;-82
2023/12/07 01:31:31;;;;;;;;;;;;;;;-0.87;80.00;101826.77;106724;1257;122750;-83
2023/12/07 01:33:58;;;;;;;;;;;;;;;-0.90;80.17;101828.61;106672;1259;61219;-84
2023/12/07 01:36:25;;;;;;;;;;;;;;;-0.92;80.08;101828.08;106530;1254;123886;-84
2023/12/07 01:38:52;;;;;;;;;;;;;;;-0.93;80.23;101824.19;106600;1260;74629;-84
2023/12/07 01:41:19;;;;;;;;;;;;;;;-0.94;80.13;101824.66;106679;1259;66253;-82
2023/12/07 01:43:46;;;;;;;;;;;;;;;-0.96;80.21;101826.21;106816;1256;73900;-83
2023/12/07 01:46:13;;;;;;;;;;;;;;;-0.98;80.10;101827.75;106645;1253;61087;-82
2023/12/07 01:48:41;;;;;;;;;;;;;;;-1.00;80.27;101824.17;106664;1253;124076;-82
2023/12/07 01:51:08;;;;;;;;;;;;;;;-1.01;80.28;101824.95;106885;1254;73444;-81
2023/12/07 01:53:35;;;;;;;;;;;;;;;-1.01;80.42;101824.20;106672;1254;124190;-82
2023/12/07 01:56:02;;;;;;;;;;;;;;;-1.02;80.32;101820.88;106871;1257;71071;-83
2023/12/07 01:58:29;;;;;;;;;;;;;;;-1.02;80.39;101824.30;106958;1254;61157;-82
2023/12/07 02:00:55;;;;;;;;;;;;;;;-1.02;80.25;101825.98;106691;1252;123485;-83
2023/12/07 02:03:22;;;;;;;;;;;;;;;-1.01;80.46;101822.98;106948;1256;74770;-83
2023/12/07 02:05:49;;;;;;;;;;;;;;;-1.01;80.48;101826.47;106853;1256;124812;-82
2023/12/07 02:08:16;;;;;;;;;;;;;;;-0.98;80.54;101823.61;106730;1254;71804;-84
2023/12/07 02:10:43;;;;;;;;;;;;;;;-0.95;80.52;101822.98;106978;1257;61192;-84
2023/12/07 02:13:10;;;;;;;;;;;;;;;-0.94;80.58;101821.35;106702;1254;124919;-84
2023/12/07 02:15:37;;;;;;;;;;;;;;;-0.94;80.57;101822.77;106647;1260;75361;-85
2023/12/07 02:18:16;;;;;;;;;;;;;;;-0.94;80.45;101824.44;106790;1258;125030;-85
2023/12/07 02:20:44;;;;;;;;;;;;;;;-0.94;80.46;101827.06;106740;1254;72762;-85
2023/12/07 02:23:10;;;;;;;;;;;;;;;-0.92;80.54;101829.95;106823;1258;61267;-84
2023/12/07 02:25:41;;;;;;;;;;;;;;;-0.89;80.48;101829.20;107139;1254;125227;-83
2023/12/07 02:28:08;;;;;;;;;;;;;;;-0.86;80.54;101830.84;106880;1258;73420;-84
2023/12/07 02:30:34;;;;;;;;;;;;;;;-0.83;80.69;101829.90;106715;1254;124737;-83
2023/12/07 02:33:01;;;;;;;;;;;;;;;-0.81;80.71;101830.81;106586;1254;71437;-83
2023/12/07 02:35:28;;;;;;;;;;;;;;;-0.77;80.55;101833.02;106693;1257;125669;-82
2023/12/07 02:37:55;;;;;;;;;;;;;;;-0.74;80.67;101834.11;106693;1253;61184;-86
2023/12/07 02:40:22;;;;;;;;;;;;;;;-0.72;80.56;101839.81;106659;1254;74695;-85
2023/12/07 02:42:49;;;;;;;;;;;;;;;-0.72;80.53;101838.64;106666;1254;124804;-84
2023/12/07 02:45:16;;;;;;;;;;;;;;;-0.69;80.38;101840.23;106838;1260;72468;-85
2023/12/07 02:47:45;;;;;;;;;;;;;;;-0.67;80.58;101840.84;106474;1255;123817;-86
2023/12/07 02:50:12;;;;;;;;;;;;;;;-0.65;80.40;101844.02;106716;1254;61326;-85
2023/12/07 02:52:39;;;;;;;;;;;;;;;-0.67;80.41;101847.53;106852;1254;74658;-86
2023/12/07 02:55:06;;;;;;;;;;;;;;;-0.67;80.31;101843.71;106413;1259;125653;-85
2023/12/07 02:57:35;;;;;;;;;;;;;;;-0.67;80.29;101842.02;106616;1256;71328;-83
2023/12/07 03:00:06;;;;;;;;;;;;;;;-0.67;80.26;101839.76;106666;1254;124777;-83
2023/12/07 03:02:36;;;;;;;;;;;;;;;-0.68;80.11;101840.20;106752;1254;59804;-85
2023/12/07 03:05:03;;;;;;;;;;;;;;;-0.66;80.30;101840.52;106609;1255;73442;-84
2023/12/07 03:07:30;;;;;;;;;;;;;;;-0.66;80.37;101840.92;106730;1254;124052;-84
2023/12/07 03:09:56;;;;;;;;;;;;;;;-0.65;80.37;101839.63;106798;1259;73135;-85
2023/12/07 03:12:23;;;;;;;;;;;;;;;-0.66;80.40;101840.73;106644;1254;123970;-83
2023/12/07 03:14:50;;;;;;;;;;;;;;;-0.66;80.31;101841.27;106858;1254;60371;-85
2023/12/07 03:17:17;;;;;;;;;;;;;;;-0.68;80.26;101842.14;106686;1258;73600;-85
2023/12/07 03:19:43;;;;;;;;;;;;;;;-0.68;80.21;101843.59;106760;1254;123847;-84
2023/12/07 03:22:10;;;;;;;;;;;;;;;-0.71;80.24;101844.41;106771;1254;74024;-84
2023/12/07 03:24:37;;;;;;;;;;;;;;;-0.73;80.35;101842.98;106684;1254;125031;-83
2023/12/07 03:27:04;;;;;;;;;;;;;;;-0.75;80.35;101840.81;106842;1254;61225;-82
2023/12/07 03:29:31;;;;;;;;;;;;;;;-0.76;80.29;101836.23;106622;1254;125114;-82
2023/12/07 03:31:58;;;;;;;;;;;;;;;-0.76;80.31;101838.42;107477;1258;65757;-82
2023/12/07 03:34:25;;;;;;;;;;;;;;;-0.79;80.19;101837.67;106767;1254;73085;-83
2023/12/07 03:36:52;;;;;;;;;;;;;;;-0.82;80.26;101838.10;106565;1254;123999;-83
2023/12/07 03:39:18;;;;;;;;;;;;;;;-0.84;80.37;101834.46;107208;1257;61183;-85
2023/12/07 03:41:45;;;;;;;;;;;;;;;-0.87;80.29;101834.93;106823;1254;124438;-83
2023/12/07 03:44:12;;;;;;;;;;;;;;;-0.88;80.39;101833.59;106814;1254;65174;-84
2023/12/07 03:46:39;;;;;;;;;;;;;;;-0.89;80.47;101829.26;107045;1254;71457;-83
2023/12/07 03:49:05;;;;;;;;;;;;;;;-0.89;80.54;101828.52;106895;1254;124693;-82
2023/12/07 03:51:32;;;;;;;;;;;;;;;-0.89;80.43;101831.61;106882;1255;61193;-82
2023/12/07 03:53:59;;;;;;;;;;;;;;;-0.87;80.63;101837.14;106858;1254;125020;-84
2023/12/07 03:56:29;;;;;;;;;;;;;;;-0.83;80.64;101842.46;106864;1254;66300;-85
2023/12/07 03:58:56;;;;;;;;;;;;;;;-0.82;80.65;101839.98;106707;1255;72401;-84
2023/12/07 04:01:24;;;;;;;;;;;;;;;-0.81;80.58;101842.04;106816;1257;124797;-83
2023/12/07 04:04:00;;;;;;;;;;;;;;;-0.77;80.72;101841.14;107026;1254;61209;-84
2023/12/07 04:06:27;;;;;;;;;;;;;;;-0.73;80.79;101848.00;106981;1253;124732;-84
2023/12/07 04:08:54;;;;;;;;;;;;;;;-0.72;80.64;101845.03;106959;1254;64928;-83
2023/12/07 04:11:20;;;;;;;;;;;;;;;-0.71;80.64;101846.18;106925;1254;71383;-83
2023/12/07 04:13:47;;;;;;;;;;;;;;;-0.70;80.55;101846.23;106992;1256;61285;-82
2023/12/07 04:16:14;;;;;;;;;;;;;;;-0.68;80.61;101848.33;106908;1254;61254;-82
2023/12/07 04:18:41;;;;;;;;;;;;;;;-0.66;80.67;101848.63;106901;1256;124795;-82
2023/12/07 04:21:07;;;;;;;;;;;;;;;-0.66;80.61;101848.33;106878;1257;65379;-82
2023/12/07 04:23:34;;;;;;;;;;;;;;;-0.64;80.58;101847.77;106767;1256;125002;-83
2023/12/07 04:26:01;;;;;;;;;;;;;;;-0.64;80.65;101853.32;106790;1254;61266;-86
2023/12/07 04:28:27;;;;;;;;;;;;;;;-0.63;80.44;101854.08;106714;1257;62531;-82
2023/12/07 04:30:54;;;;;;;;;;;;;;;-0.62;80.44;101852.64;106527;1260;124797;-84
2023/12/07 04:33:21;;;;;;;;;;;;;;;-0.61;80.65;101856.02;106831;1254;65227;-84
2023/12/07 04:35:48;;;;;;;;;;;;;;;-0.58;80.61;101861.77;106981;1253;124916;-85
2023/12/07 04:38:14;;;;;;;;;;;;;;;-0.56;80.61;101861.34;106970;1253;60738;-84
2023/12/07 04:40:41;;;;;;;;;;;;;;;-0.55;80.57;101859.03;107020;1254;61819;-82
2023/12/07 04:43:08;;;;;;;;;;;;;;;-0.57;80.53;101855.84;107085;1260;124704;-81
2023/12/07 04:45:35;;;;;;;;;;;;;;;-0.57;80.50;101852.66;107021;1254;64311;-83
2023/12/07 04:48:03;;;;;;;;;;;;;;;-0.58;80.35;101850.73;107024;1254;124763;-83
2023/12/07 04:50:30;;;;;;;;;;;;;;;-0.59;80.35;101850.33;107029;1254;59891;-84
2023/12/07 04:52:57;;;;;;;;;;;;;;;-0.57;80.55;101854.39;107079;1253;61397;-83
2023/12/07 04:55:23;;;;;;;;;;;;;;;-0.57;80.55;101859.36;106755;1260;124057;-83
2023/12/07 04:57:50;;;;;;;;;;;;;;;-0.58;80.49;101860.20;106953;1257;66002;-83
2023/12/07 05:00:17;;;;;;;;;;;;;;;-0.60;80.55;101862.30;106782;1254;124053;-83
2023/12/07 05:02:44;;;;;;;;;;;;;;;-0.62;80.47;101859.34;106894;1254;61144;-87
2023/12/07 05:05:11;;;;;;;;;;;;;;;-0.65;80.41;101864.10;106858;1259;61237;-86
2023/12/07 05:07:38;;;;;;;;;;;;;;;-0.67;80.53;101863.87;106910;1258;124424;-85
2023/12/07 05:10:05;;;;;;;;;;;;;;;-0.68;80.53;101870.17;107007;1254;64831;-85
2023/12/07 05:12:32;;;;;;;;;;;;;;;-0.70;80.42;101875.35;106774;1257;123847;-80
2023/12/07 05:14:59;;;;;;;;;;;;;;;-0.74;80.56;101877.27;106732;1259;61250;-85
2023/12/07 05:17:26;;;;;;;;;;;;;;;-0.78;80.40;101879.48;106850;1254;124082;-85
2023/12/07 05:19:52;;;;;;;;;;;;;;;-0.81;80.67;101880.58;107236;1254;73333;-84
2023/12/07 05:22:19;;;;;;;;;;;;;;;-0.84;80.59;101884.98;106899;1256;65786;-82
2023/12/07 05:24:46;;;;;;;;;;;;;;;-0.87;80.67;101883.32;106805;1254;123870;-84
2023/12/07 05:27:12;;;;;;;;;;;;;;;-0.87;80.64;101891.21;106880;1254;61227;-84
2023/12/07 05:29:39;;;;;;;;;;;;;;;-0.89;80.68;101887.79;106821;1254;124113;-84
2023/12/07 05:32:06;;;;;;;;;;;;;;;-0.91;80.88;101890.38;106811;1259;74508;-87
2023/12/07 05:34:35;;;;;;;;;;;;;;;-0.93;80.78;101895.02;106857;1254;66632;-90
2023/12/07 05:37:02;;;;;;;;;;;;;;;-0.95;80.88;101894.29;106816;1254;124345;-83
2023/12/07 05:39:28;;;;;;;;;;;;;;;-0.98;80.75;101898.73;106932;1256;61733;-85
2023/12/07 05:41:55;;;;;;;;;;;;;;;-1.01;80.94;101896.21;106796;1254;125025;-84
2023/12/07 05:44:22;;;;;;;;;;;;;;;-1.02;80.86;101895.92;107810;1254;76107;-84
2023/12/07 05:46:49;;;;;;;;;;;;;;;-1.01;81.16;101897.59;107089;1254;65063;-84
2023/12/07 05:49:16;;;;;;;;;;;;;;;-0.99;81.24;101896.59;106823;1259;124606;-85
2023/12/07 05:51:42;;;;;;;;;;;;;;;-0.96;80.97;101896.48;106967;1257;61372;-84
2023/12/07 05:54:09;;;;;;;;;;;;;;;-0.94;81.16;101901.13;106648;1253;125126;-82
2023/12/07 05:56:36;;;;;;;;;;;;;;;-0.92;81.14;101901.67;106798;1254;75363;-82
2023/12/07 05:59:03;;;;;;;;;;;;;;;-0.89;81.24;101899.69;106689;1259;65972;-87
2023/12/07 06:01:30;;;;;;;;;;;;;;;-0.89;81.09;101903.85;106936;1256;124592;-82
2023/12/07 06:03:57;;;;;;;;;;;;;;;-0.89;81.18;101902.61;107051;1257;61345;-80
2023/12/07 06:06:23;;;;;;;;;;;;;;;-0.89;81.03;101900.19;106939;1254;127010;-80
2023/12/07 06:08:50;;;;;;;;;;;;;;;-0.88;81.23;101901.67;106950;1253;73363;-81
2023/12/07 06:11:17;;;;;;;;;;;;;;;-0.88;80.99;101899.95;106849;1254;64661;-80
2023/12/07 06:13:44;;;;;;;;;;;;;;;-0.86;81.32;101901.30;106718;1253;125561;-77
2023/12/07 06:16:14;;;;;;;;;;;;;;;-0.84;81.13;101905.50;106119;1259;61310;-80
2023/12/07 06:18:41;;;;;;;;;;;;;;;-0.85;81.14;101910.43;106599;1259;124654;-79
2023/12/07 06:21:08;;;;;;;;;;;;;;;-0.84;81.17;101915.65;106742;1253;75385;-79
2023/12/07 06:23:35;;;;;;;;;;;;;;;-0.81;81.16;101914.58;106826;1253;125393;-80
2023/12/07 06:26:07;;;;;;;;;;;;;;;-0.78;81.24;101912.02;106913;1253;71337;-83
2023/12/07 06:28:37;;;;;;;;;;;;;;;-0.73;81.38;101914.02;106837;1254;61201;-83
2023/12/07 06:31:04;;;;;;;;;;;;;;;-0.69;81.40;101915.91;106813;1253;124561;-83
2023/12/07 06:33:31;;;;;;;;;;;;;;;-0.68;81.35;101918.11;107135;1257;74621;-83
2023/12/07 06:35:58;;;;;;;;;;;;;;;-0.66;81.36;101918.65;106970;1253;124849;-83
2023/12/07 06:38:25;;;;;;;;;;;;;;;-0.66;81.15;101923.67;107121;1254;71262;-83
2023/12/07 06:40:51;;;;;;;;;;;;;;;-0.65;81.07;101928.38;107095;1252;59314;-84
2023/12/07 06:43:19;;;;;;;;;;;;;;;-0.65;81.10;101932.69;106984;1259;125018;-85
2023/12/07 06:45:45;;;;;;;;;;;;;;;-0.63;81.24;101931.48;107091;1254;74627;-83
2023/12/07 06:48:13;;;;;;;;;;;;;;;-0.60;81.12;101929.65;106793;1254;124711;-83
2023/12/07 06:50:40;;;;;;;;;;;;;;;-0.59;81.17;101931.99;106612;1257;71466;-83
2023/12/07 06:53:06;;;;;;;;;;;;;;;-0.60;80.95;101933.61;106483;1254;192744;-83
2023/12/07 06:55:33;;;;;;;;;;;;;;;-0.62;81.06;101935.23;106726;1254;124921;-82
2023/12/07 06:58:00;;;;;;;;;;;;;;;-0.60;80.95;101938.13;106809;1254;73466;-80
2023/12/07 07:00:27;;;;;;;;;;;;;;;-0.59;81.14;101938.71;106958;1253;125145;-83
2023/12/07 07:02:53;;;;;;;;;;;;;;;-0.59;81.10;101941.52;106942;1253;72411;-83
2023/12/07 07:05:20;;;;;;;;;;;;;;;-0.61;80.95;101942.20;106944;1256;61428;-83
2023/12/07 07:07:47;;;;;;;;;;;;;;;-0.62;80.98;101944.50;106928;1254;124347;-81
2023/12/07 07:10:13;;;;;;;;;;;;;;;-0.62;81.07;101945.21;106943;1254;72405;-79
2023/12/07 07:12:40;;;;;;;;;;;;;;;-0.59;81.09;101948.70;107012;1254;123942;-79
2023/12/07 07:15:08;;;;;;;;;;;;;;;-0.56;81.13;101949.98;106121;1254;72683;-83
2023/12/07 07:17:35;;;;;;;;;;;;;;;-0.52;81.13;101951.03;106753;1254;125378;-80
2023/12/07 07:20:01;;;;;;;;;;;;;;;-0.50;81.29;101950.84;106838;1254;59928;-83
2023/12/07 07:22:28;;;;;;;;;;;;;;;-0.50;81.18;101951.21;106748;1258;73100;-82
2023/12/07 07:24:54;;;;;;;;;;;;;;;-0.49;81.20;101950.88;106693;1254;124101;-82
2023/12/07 07:27:21;;;;;;;;;;;;;;;-0.48;81.03;101955.77;106707;1253;71846;-83
2023/12/07 07:29:48;;;;;;;;;;;;;;;-0.46;81.12;101951.63;106735;1254;125200;-82
2023/12/07 07:32:15;;;;;;;;;;;;;;;-0.42;81.15;101947.29;106794;1254;61336;-82
2023/12/07 07:34:41;;;;;;;;;;;;;;;-0.40;81.08;101947.30;106786;1253;73343;-83
2023/12/07 07:37:08;;;;;;;;;;;;;;;-0.38;81.06;101947.85;106813;1253;124234;-80
2023/12/07 07:39:35;;;;;;;;;;;;;;;-0.35;81.07;101946.31;106790;1254;72795;-80
2023/12/07 07:42:02;;;;;;;;;;;;;;;-0.34;80.95;101944.16;106515;1254;125203;-80
2023/12/07 07:44:28;;;;;;;;;;;;;;;-0.33;81.06;101945.46;106825;1253;61298;-80
2023/12/07 07:46:55;;;;;;;;;;;;;;;-0.32;81.04;101942.48;106598;1254;75881;-80
2023/12/07 07:49:22;;;;;;;;;;;;;;;-0.28;81.18;101941.50;106655;1254;124015;-83
2023/12/07 07:51:48;;;;;;;;;;;;;;;-0.26;81.07;101944.77;106581;1253;72700;-83
2023/12/07 07:54:15;;;;;;;;;;;;;;;-0.22;81.08;101943.02;106673;1253;124072;-82
2023/12/07 07:56:43;;;;;;;;;;;;;;;-0.17;81.21;101946.88;106825;1253;61273;-82
2023/12/07 07:59:11;;;;;;;;;;;;;;;-0.14;80.94;101945.23;106804;1257;74210;-79
2023/12/07 08:01:37;;;;;;;;;;;;;;;-0.11;80.95;101947.39;106560;1255;125107;-80
2023/12/07 08:04:04;;;;;;;;;;;;;;;-0.08;80.82;101948.56;106704;1254;72704;-79
2023/12/07 08:06:31;;;;;;;;;;;;;;;-0.05;80.83;101950.85;106679;1254;124772;-80
2023/12/07 08:08:57;;;;;;;;;;;;;;;-0.04;80.79;101950.95;106783;1253;59423;-79
2023/12/07 08:11:24;;;;;;;;;;;;;;;0.00;80.90;101953.38;106659;1257;125215;-79
2023/12/07 08:13:51;;;;;;;;;;;;;;;0.04;80.79;101958.20;106699;1259;66251;-79
2023/12/07 08:16:19;;;;;;;;;;;;;;;0.13;80.85;101956.52;106907;1254;73691;-79
2023/12/07 08:18:45;;;;;;;;;;;;;;;0.19;80.87;101956.94;106753;1254;124785;-80
2023/12/07 08:21:22;;;;;;;;;;;;;;;0.25;80.68;101955.17;106726;1257;61371;-79
2023/12/07 08:23:48;;;;;;;;;;;;;;;0.29;80.67;101954.28;106556;1254;124753;-80
2023/12/07 08:26:15;;;;;;;;;;;;;;;0.30;80.57;101952.34;106614;1254;64982;-80
2023/12/07 08:28:42;;;;;;;;;;;;;;;0.31;80.52;101951.51;106826;1253;72737;-80
2023/12/07 08:31:09;;;;;;;;;;;;;;;0.35;80.52;101949.30;106674;1257;124766;-80
2023/12/07 08:33:37;;;;;;;;;;;;;;;0.42;80.41;101949.39;106728;1257;61126;-83
2023/12/07 08:36:04;;;;;;;;;;;;;;;0.52;80.66;101947.93;106230;1257;124945;-82
2023/12/07 08:38:31;;;;;;;;;;;;;;;0.58;80.47;101951.38;106661;1254;66298;-83
2023/12/07 08:40:58;;;;;;;;;;;;;;;0.66;80.41;101952.05;106518;1254;71534;-83
2023/12/07 08:43:25;;;;;;;;;;;;;;;0.73;80.51;101952.86;106585;1257;124806;-80
2023/12/07 08:45:52;;;;;;;;;;;;;;;0.80;80.33;101958.12;106772;1253;61240;-80
2023/12/07 08:48:21;;;;;;;;;;;;;;;0.88;80.39;101960.77;106656;1253;124500;-79
2023/12/07 08:50:48;;;;;;;;;;;;;;;0.93;80.24;101962.30;106712;1254;65126;-80
2023/12/07 08:53:15;;;;;;;;;;;;;;;1.00;80.13;101961.77;106681;1254;73005;-80
2023/12/07 08:55:41;;;;;;;;;;;;;;;1.03;80.08;101959.77;106802;1254;124379;-79
2023/12/07 08:58:10;;;;;;;;;;;;;;;1.07;79.84;101960.77;106826;1254;61106;-80
2023/12/07 09:00:37;;;;;;;;;;;;;;;1.09;79.72;101961.15;106756;1254;124205;-80
2023/12/07 09:03:03;;;;;;;;;;;;;;;1.14;79.80;101965.36;106808;1253;66229;-80
2023/12/07 09:05:31;;;;;;;;;;;;;;;1.16;79.67;101967.49;106810;1254;124530;-80
2023/12/07 09:07:57;;;;;;;;;;;;;;;1.20;79.65;101974.99;106896;1253;59509;-80
2023/12/07 09:10:24;;;;;;;;;;;;;;;1.26;79.58;101979.97;106824;1253;61186;-79
2023/12/07 09:12:51;;;;;;;;;;;;;;;1.29;79.42;101984.23;106644;1254;124122;-80
2023/12/07 09:15:17;;;;;;;;;;;;;;;1.32;79.29;101985.89;106831;1256;66402;-79
2023/12/07 09:17:44;;;;;;;;;;;;;;;1.34;79.39;101991.41;106584;1254;124088;-79
2023/12/07 09:20:14;;;;;;;;;;;;;;;1.35;79.11;101994.98;106759;1254;61351;-79
2023/12/07 09:22:44;;;;;;;;;;;;;;;1.36;79.25;101992.42;106769;1253;61250;-82
2023/12/07 09:25:11;;;;;;;;;;;;;;;1.40;79.31;101991.39;106705;1254;124292;-80
2023/12/07 09:27:38;;;;;;;;;;;;;;;1.43;79.25;101983.80;106615;1254;66236;-80
2023/12/07 09:30:06;;;;;;;;;;;;;;;1.50;79.20;101984.34;106662;1254;124311;-83
2023/12/07 09:32:38;;;;;;;;;;;;;;;1.55;79.21;101979.58;106909;1257;61241;-83
2023/12/07 09:35:05;;;;;;;;;;;;;;;1.56;79.06;101973.28;106908;1254;61314;-83
2023/12/07 09:37:31;;;;;;;;;;;;;;;1.63;79.16;101969.67;106723;1254;124548;-79
2023/12/07 09:39:58;;;;;;;;;;;;;;;1.65;78.75;101965.52;106898;1253;64662;-82
2023/12/07 09:42:25;;;;;;;;;;;;;;;1.62;78.83;101965.27;106594;1254;124610;-83
2023/12/07 09:44:51;;;;;;;;;;;;;;;1.63;78.81;101959.85;106839;1254;61365;-82
2023/12/07 09:47:18;;;;;;;;;;;;;;;1.67;78.81;101962.09;106759;1253;61356;-83
2023/12/07 09:49:45;;;;;;;;;;;;;;;1.69;78.82;101960.70;106802;1253;124359;-83
2023/12/07 09:52:11;;;;;;;;;;;;;;;1.74;78.77;101961.22;106780;1254;66636;-83
2023/12/07 09:54:41;;;;;;;;;;;;;;;1.77;78.49;101964.94;106665;1254;124410;-82
2023/12/07 09:57:11;;;;;;;;;;;;;;;1.78;78.41;101962.20;106831;1256;61276;-82
2023/12/07 09:59:39;;;;;;;;;;;;;;;1.78;78.54;101959.83;106597;1254;124817;-82
2023/12/07 10:02:07;;;;;;;;;;;;;;;1.83;78.54;101957.75;106816;1253;74682;-82
2023/12/07 10:04:34;;;;;;;;;;;;;;;1.85;78.42;101952.92;106841;1253;66299;-82
2023/12/07 10:07:02;;;;;;;;;;;;;;;1.90;78.40;101951.59;106697;1254;124730;-82
2023/12/07 10:09:28;;;;;;;;;;;;;;;2.00;78.61;101944.20;106703;1254;61670;-82
2023/12/07 10:12:02;;;;;;;;;;;;;;;2.08;78.42;101945.55;106649;1254;124596;-84
2023/12/07 10:14:29;;;;;;;;;;;;;;;2.17;78.34;101944.55;106804;1257;73199;-81
2023/12/07 10:16:56;;;;;;;;;;;;;;;2.22;78.20;101946.08;106776;1254;65086;-82
2023/12/07 10:19:23;;;;;;;;;;;;;;;2.24;78.01;101945.20;106700;1255;124593;-82
2023/12/07 10:21:52;;;;;;;;;;;;;;;2.22;77.85;101942.47;106782;1256;61349;-82
2023/12/07 10:24:19;;;;;;;;;;;;;;;2.15;77.66;101941.42;106560;1255;124177;-83
2023/12/07 10:26:47;;;;;;;;;;;;;;;2.09;77.56;101943.77;106582;1260;73816;-83
2023/12/07 10:29:13;;;;;;;;;;;;;;;2.06;77.68;101944.48;106833;1253;66491;-83
2023/12/07 10:31:40;;;;;;;;;;;;;;;2.09;77.80;101946.50;106585;1254;124258;-82
2023/12/07 10:34:06;;;;;;;;;;;;;;;2.09;77.70;101947.67;106731;1256;61304;-83
2023/12/07 10:36:33;;;;;;;;;;;;;;;2.04;77.66;101945.92;106543;1256;123734;-83
2023/12/07 10:38:59;;;;;;;;;;;;;;;2.05;77.73;101940.80;106556;1256;74775;-84
2023/12/07 10:41:26;;;;;;;;;;;;;;;2.03;77.41;101938.23;106629;1254;123837;-83
2023/12/07 10:43:54;;;;;;;;;;;;;;;2.00;77.45;101936.77;106757;1255;71058;-83
2023/12/07 10:46:21;;;;;;;;;;;;;;;2.00;77.73;101940.90;106619;1254;61439;-82
2023/12/07 10:48:48;;;;;;;;;;;;;;;2.00;77.43;101939.86;106518;1254;124076;-82
2023/12/07 10:51:30;;;;;;;;;;;;;;;2.00;77.53;101942.98;106717;1254;73843;-82
2023/12/07 10:53:58;;;;;;;;;;;;;;;1.96;77.39;101938.25;106615;1256;124245;-82
2023/12/07 10:56:28;;;;;;;;;;;;;;;1.93;77.45;101933.33;106665;1258;71279;-82
2023/12/07 10:58:55;;;;;;;;;;;;;;;1.85;77.31;101934.26;106625;1255;61083;-83
2023/12/07 11:01:22;;;;;;;;;;;;;;;1.82;77.46;101935.86;106452;1258;124778;-83
2023/12/07 11:03:52;;;;;;;;;;;;;;;1.83;77.58;101933.58;106750;1254;74690;-82
2023/12/07 11:06:19;;;;;;;;;;;;;;;1.89;77.81;101931.90;106575;1254;124522;-82
2023/12/07 11:08:52;;;;;;;;;;;;;;;1.92;77.61;101933.05;106695;1254;72692;-83
2023/12/07 11:11:29;;;;;;;;;;;;;;;1.90;77.34;101930.28;106627;1253;59650;-83
2023/12/07 11:14:06;;;;;;;;;;;;;;;1.96;77.57;101931.96;106951;1253;61164;-83
2023/12/07 11:16:34;;;;;;;;;;;;;;;2.02;77.68;101926.19;106721;1254;74665;-83
2023/12/07 11:19:01;;;;;;;;;;;;;;;2.02;77.48;101924.52;106498;1260;124895;-83
2023/12/07 11:21:28;;;;;;;;;;;;;;;2.00;77.27;101919.83;106797;1257;71637;-83
2023/12/07 11:23:54;;;;;;;;;;;;;;;1.95;77.39;101915.13;106630;1254;125551;-83
2023/12/07 11:26:24;;;;;;;;;;;;;;;1.97;77.51;101921.34;106817;1255;61170;-83
2023/12/07 11:28:51;;;;;;;;;;;;;;;2.01;77.57;101921.31;106742;1254;74831;-83
2023/12/07 11:31:19;;;;;;;;;;;;;;;2.01;77.39;101918.83;106788;1257;124107;-84
2023/12/07 11:33:47;;;;;;;;;;;;;;;1.98;77.29;101915.34;106651;1258;72779;-84
2023/12/07 11:36:14;;;;;;;;;;;;;;;1.94;77.36;101918.19;106417;1256;123938;-84
2023/12/07 11:39:06;;;;;;;;;;;;;;;1.94;77.47;101916.27;106868;1254;61211;-84
2023/12/07 11:41:34;;;;;;;;;;;;;;;1.91;77.28;101916.89;106457;1255;123976;-83
2023/12/07 11:44:01;;;;;;;;;;;;;;;1.90;77.52;101914.70;106746;1256;66253;-82
2023/12/07 11:46:27;;;;;;;;;;;;;;;1.88;77.36;101913.17;106606;1256;71261;-83
2023/12/07 11:48:54;;;;;;;;;;;;;;;1.80;77.37;101913.92;106381;1257;123858;-83
2023/12/07 11:51:21;;;;;;;;;;;;;;;1.75;77.39;101914.61;106536;1255;59460;-83
2023/12/07 11:53:49;;;;;;;;;;;;;;;1.72;77.47;101915.42;106528;1256;124123;-84
2023/12/07 11:56:20;;;;;;;;;;;;;;;1.73;77.55;101908.54;106638;1256;65130;-83
2023/12/07 11:58:46;;;;;;;;;;;;;;;1.70;77.61;101910.21;106554;1256;70411;-83
2023/12/07 12:01:13;;;;;;;;;;;;;;;1.67;77.56;101907.91;106364;1258;124082;-83
2023/12/07 12:03:40;;;;;;;;;;;;;;;1.64;77.42;101908.14;106526;1255;59297;-83
2023/12/07 12:06:10;;;;;;;;;;;;;;;1.61;77.69;101905.30;106483;1255;124923;-80
2023/12/07 12:08:36;;;;;;;;;;;;;;;1.59;77.74;101907.97;106606;1260;67572;-80
2023/12/07 12:11:03;;;;;;;;;;;;;;;1.57;77.57;101907.25;106658;1257;71846;-80
2023/12/07 12:13:32;;;;;;;;;;;;;;;1.52;77.66;101905.83;106225;1255;125344;-83
2023/12/07 12:15:58;;;;;;;;;;;;;;;1.49;77.70;101908.91;106472;1254;61352;-84
2023/12/07 12:18:26;;;;;;;;;;;;;;;1.48;77.82;101907.27;106151;1255;124709;-85
2023/12/07 12:20:53;;;;;;;;;;;;;;;1.49;77.82;101907.69;106270;1255;64699;-83
2023/12/07 12:23:20;;;;;;;;;;;;;;;1.46;77.75;101902.25;106472;1259;71455;-83
2023/12/07 12:25:47;;;;;;;;;;;;;;;1.44;77.72;101897.05;106424;1255;124222;-82